createdAt,value
2019-04-03T00:01:15.656Z,68.20
2019-04-03T00:03:46.046Z,67.80
2019-04-03T00:06:16.387Z,68.00
2019-04-03T00:08:46.769Z,67.00
2019-04-03T00:11:17.215Z,69.20
2019-04-03T00:13:47.793Z,69.80
2019-04-03T00:16:18.138Z,69.20
2019-04-03T00:18:48.511Z,69.90
2019-04-03T00:21:19.608Z,69.40
2019-04-03T00:23:52.159Z,69.40
2019-04-03T00:26:22.784Z,70.80
2019-04-03T00:28:54.291Z,71.10
2019-04-03T00:31:24.634Z,72.00
2019-04-03T00:33:54.996Z,70.90
2019-04-03T00:36:25.434Z,71.60
2019-04-03T00:38:55.864Z,71.90
2019-04-03T00:41:26.193Z,72.20
2019-04-03T00:43:56.652Z,73.10
2019-04-03T00:46:26.948Z,73.30
2019-04-03T00:48:57.320Z,74.00
2019-04-03T00:51:28.018Z,74.50
2019-04-03T00:53:58.454Z,74.40
2019-04-03T00:56:28.901Z,76.10
2019-04-03T00:58:59.393Z,75.50
2019-04-03T01:01:30.904Z,76.50
2019-04-03T01:04:01.269Z,76.90
2019-04-03T01:06:31.572Z,77.00
2019-04-03T01:09:01.933Z,77.30
2019-04-03T01:11:33.773Z,77.80
2019-04-03T01:14:04.424Z,78.10
2019-04-03T01:16:34.764Z,78.80
2019-04-03T01:19:06.263Z,79.20
2019-04-03T01:21:37.408Z,79.50
2019-04-03T01:24:08.526Z,79.50
2019-04-03T01:26:40.689Z,80.90
2019-04-03T01:29:12.650Z,81.20
2019-04-03T01:31:44.704Z,81.90
2019-04-03T01:34:17.198Z,82.60
2019-04-03T01:36:48.153Z,82.30
2019-04-03T01:39:21.065Z,82.50
2019-04-03T01:41:51.463Z,82.80
2019-04-03T01:44:24.343Z,83.50
2019-04-03T01:46:54.503Z,83.40
2019-04-03T01:49:28.120Z,83.50
2019-04-03T01:51:58.966Z,83.70
2019-04-03T01:54:33.039Z,83.80
2019-04-03T01:57:02.751Z,83.50
2019-04-03T01:59:33.117Z,83.40
2019-04-03T02:02:03.472Z,83.00
2019-04-03T02:04:33.927Z,83.40
2019-04-03T02:07:04.292Z,83.50
2019-04-03T02:09:34.690Z,83.60
2019-04-03T02:12:06.900Z,84.40
2019-04-03T02:14:37.337Z,83.90
2019-04-03T02:17:07.921Z,83.50
2019-04-03T02:19:38.385Z,83.40
2019-04-03T02:22:08.973Z,83.30
2019-04-03T02:24:39.407Z,83.30
2019-04-03T02:27:09.865Z,83.60
2019-04-03T02:29:40.435Z,83.70
2019-04-03T02:32:10.891Z,83.70
2019-04-03T02:34:42.353Z,84.00
2019-04-03T02:37:16.493Z,84.20
2019-04-03T02:39:44.785Z,84.40
2019-04-03T02:42:15.130Z,84.60
2019-04-03T02:44:45.803Z,84.70
2019-04-03T02:47:16.209Z,84.50
2019-04-03T02:49:47.440Z,84.30
2019-04-03T02:52:17.881Z,84.30
2019-04-03T02:54:48.262Z,84.50
2019-04-03T02:57:18.626Z,84.20
2019-04-03T02:59:49.000Z,84.10
2019-04-03T03:02:19.373Z,83.90
2019-04-03T03:04:53.726Z,84.10
2019-04-03T03:07:22.684Z,84.60
2019-04-03T03:09:53.898Z,84.60
2019-04-03T03:12:27.157Z,84.50
2019-04-03T03:14:57.170Z,84.80
2019-04-03T03:17:29.087Z,84.00
2019-04-03T03:20:05.159Z,84.50
2019-04-03T03:22:34.996Z,84.10
2019-04-03T03:25:06.105Z,83.80
2019-04-03T03:27:40.618Z,83.70
2019-04-03T03:30:30.782Z,83.50
2019-04-03T03:32:42.530Z,83.60
2019-04-03T03:35:20.155Z,83.50
2019-04-03T03:37:47.330Z,83.20
2019-04-03T03:40:18.137Z,82.70
2019-04-03T03:42:49.250Z,82.50
2019-04-03T03:45:21.732Z,82.80
2019-04-03T03:47:53.310Z,82.80
2019-04-03T03:50:26.060Z,82.40
2019-04-03T03:52:58.436Z,82.40
2019-04-03T03:55:31.117Z,82.60
2019-04-03T03:58:02.081Z,82.20
2019-04-03T04:00:33.147Z,82.00
2019-04-03T04:03:04.271Z,81.90
2019-04-03T04:05:35.166Z,81.90
2019-04-03T04:08:09.438Z,81.80
2019-04-03T04:10:40.066Z,82.00
2019-04-03T04:13:13.113Z,82.00
2019-04-03T04:15:43.868Z,82.00
2019-04-03T04:18:15.533Z,81.90
2019-04-03T04:20:48.402Z,81.70
2019-04-03T04:23:23.128Z,81.70
2019-04-03T04:25:51.818Z,81.30
2019-04-03T04:28:23.204Z,81.20
2019-04-03T04:30:53.995Z,81.00
2019-04-03T04:33:24.402Z,80.50
2019-04-03T04:35:54.837Z,80.20
2019-04-03T04:38:26.773Z,80.00
2019-04-03T04:40:57.321Z,79.80
2019-04-03T04:43:27.735Z,79.50
2019-04-03T04:45:58.147Z,79.50
2019-04-03T04:48:28.720Z,79.30
2019-04-03T04:50:59.295Z,78.90
2019-04-03T04:53:30.225Z,78.80
2019-04-03T04:56:00.826Z,78.80
2019-04-03T04:58:31.075Z,78.60
2019-04-03T05:01:01.486Z,78.60
2019-04-03T05:03:31.914Z,78.70
2019-04-03T05:06:02.323Z,78.60
2019-04-03T05:08:33.540Z,78.50
2019-04-03T05:11:05.567Z,78.40
2019-04-03T05:13:36.168Z,78.40
2019-04-03T05:16:06.605Z,78.40
2019-04-03T05:18:37.220Z,78.30
2019-04-03T05:21:07.675Z,78.30
2019-04-03T05:23:37.947Z,78.30
2019-04-03T05:26:08.353Z,78.40
2019-04-03T05:28:38.683Z,78.20
2019-04-03T05:31:09.116Z,78.40
2019-04-03T05:33:41.228Z,78.40
2019-04-03T05:36:30.499Z,78.70
2019-04-03T05:39:02.709Z,78.40
2019-04-03T05:41:33.026Z,78.90
2019-04-03T05:44:03.427Z,78.00
2019-04-03T05:46:36.548Z,78.10
2019-04-03T05:49:11.478Z,78.00
2019-04-03T05:51:41.988Z,77.70
2019-04-03T05:54:14.297Z,77.60
2019-04-03T05:56:44.507Z,77.80
2019-04-03T05:59:14.842Z,77.70
2019-04-03T06:01:46.656Z,77.80
2019-04-03T06:04:17.212Z,77.70
2019-04-03T06:06:47.889Z,77.80
2019-04-03T06:09:18.300Z,77.60
2019-04-03T06:11:48.665Z,77.80
2019-04-03T06:14:19.539Z,77.70
2019-04-03T06:16:51.096Z,77.80
2019-04-03T06:19:21.540Z,77.50
2019-04-03T06:21:51.935Z,77.70
2019-04-03T06:24:24.225Z,77.70
2019-04-03T06:26:54.327Z,77.60
2019-04-03T06:29:24.747Z,77.60
2019-04-03T06:31:55.934Z,77.50
2019-04-03T06:34:27.100Z,77.60
2019-04-03T06:36:57.558Z,77.10
2019-04-03T06:39:31.484Z,77.10
2019-04-03T06:42:01.576Z,77.20
2019-04-03T06:44:31.913Z,77.60
2019-04-03T06:47:02.301Z,77.80
2019-04-03T06:49:32.666Z,78.00
2019-04-03T06:52:03.266Z,78.00
2019-04-03T06:54:33.601Z,78.40
2019-04-03T06:57:04.219Z,78.10
2019-04-03T06:59:34.830Z,78.00
2019-04-03T07:02:05.376Z,78.10
2019-04-03T07:04:36.175Z,78.30
2019-04-03T07:07:07.788Z,78.30
2019-04-03T07:09:38.259Z,78.50
2019-04-03T07:12:08.745Z,78.50
2019-04-03T07:14:39.122Z,78.30
2019-04-03T07:17:09.628Z,78.30
2019-04-03T07:19:40.272Z,77.90
2019-04-03T07:22:10.832Z,78.40
2019-04-03T07:24:41.325Z,77.70
2019-04-03T07:27:14.547Z,77.40
2019-04-03T07:29:44.001Z,77.10
2019-04-03T07:32:14.669Z,76.90
2019-04-03T07:34:45.055Z,77.10
2019-04-03T07:37:17.403Z,77.20
2019-04-03T07:39:47.749Z,78.30
2019-04-03T07:42:19.406Z,78.00
2019-04-03T07:44:49.752Z,78.60
2019-04-03T07:47:20.402Z,79.20
2019-04-03T07:49:51.029Z,79.60
2019-04-03T07:52:21.512Z,80.30
2019-04-03T07:54:52.889Z,81.00
2019-04-03T07:57:23.391Z,80.60
2019-04-03T07:59:53.776Z,80.30
2019-04-03T08:02:24.177Z,79.80
2019-04-03T08:04:58.018Z,79.50
2019-04-03T08:07:26.521Z,79.70
2019-04-03T08:09:57.722Z,79.40
2019-04-03T08:12:29.087Z,80.40
2019-04-03T08:14:59.451Z,81.50
2019-04-03T08:17:29.897Z,78.90
2019-04-03T08:20:00.270Z,78.50
2019-04-03T08:22:32.778Z,79.10
2019-04-03T08:25:02.654Z,80.50
2019-04-03T08:27:33.014Z,81.30
2019-04-03T08:30:03.550Z,81.80
2019-04-03T08:32:34.007Z,82.20
2019-04-03T08:35:05.042Z,83.50
2019-04-03T08:37:35.408Z,83.60
2019-04-03T08:40:06.281Z,84.30
2019-04-03T08:42:36.659Z,84.60
2019-04-03T08:45:09.659Z,84.60
2019-04-03T08:47:40.461Z,84.40
2019-04-03T08:50:12.677Z,84.50
2019-04-03T08:52:43.082Z,84.90
2019-04-03T08:55:14.525Z,85.00
2019-04-03T08:57:46.492Z,85.10
2019-04-03T09:00:17.732Z,84.90
2019-04-03T09:02:48.113Z,85.90
2019-04-03T09:05:19.352Z,86.20
2019-04-03T09:07:50.814Z,86.10
2019-04-03T09:10:21.372Z,85.80
2019-04-03T09:13:00.217Z,85.80
2019-04-03T09:15:31.566Z,85.40
2019-04-03T09:18:13.000Z,85.30
2019-04-03T09:20:50.210Z,85.20
2019-04-03T09:23:20.740Z,85.00
2019-04-03T09:25:51.093Z,85.30
2019-04-03T09:28:21.617Z,86.00
2019-04-03T09:30:53.999Z,85.70
2019-04-03T09:33:25.477Z,85.80
2019-04-03T09:35:59.431Z,86.00
2019-04-03T09:38:29.716Z,87.20
2019-04-03T09:41:00.043Z,86.50
2019-04-03T09:43:30.449Z,85.70
2019-04-03T09:46:01.062Z,86.10
2019-04-03T09:48:33.094Z,85.30
2019-04-03T09:51:03.605Z,83.90
2019-04-03T09:53:34.383Z,83.30
2019-04-03T09:56:07.304Z,83.60
2019-04-03T09:58:39.683Z,83.50
2019-04-03T10:01:13.346Z,84.00
2019-04-03T10:03:42.491Z,83.50
2019-04-03T10:06:12.911Z,83.30
2019-04-03T10:08:43.544Z,83.60
2019-04-03T10:11:15.545Z,83.30
2019-04-03T10:13:46.158Z,83.00
2019-04-03T10:16:16.880Z,81.90
2019-04-03T10:18:48.756Z,81.90
2019-04-03T10:21:20.592Z,81.90
2019-04-03T10:23:51.163Z,81.50
2019-04-03T10:26:21.517Z,81.50
2019-04-03T10:28:51.890Z,80.80
2019-04-03T10:31:24.228Z,80.50
2019-04-03T10:33:54.261Z,79.60
2019-04-03T10:36:24.606Z,79.20
2019-04-03T10:38:55.116Z,78.90
2019-04-03T10:41:27.635Z,79.20
2019-04-03T10:43:57.465Z,79.40
2019-04-03T10:46:27.808Z,79.40
2019-04-03T10:49:00.505Z,77.70
2019-04-03T10:51:31.711Z,76.70
2019-04-03T10:54:02.172Z,75.80
2019-04-03T10:56:33.614Z,75.60
2019-04-03T10:59:11.051Z,75.70
2019-04-03T11:01:36.039Z,75.60
2019-04-03T11:04:06.693Z,75.70
2019-04-03T11:06:37.871Z,76.20
2019-04-03T11:09:10.359Z,76.40
2019-04-03T11:11:43.040Z,76.80
2019-04-03T11:14:13.083Z,76.60
2019-04-03T11:16:45.989Z,76.50
2019-04-03T11:19:15.798Z,76.60
2019-04-03T11:21:54.694Z,77.80
2019-04-03T11:24:24.995Z,77.70
2019-04-03T11:26:55.725Z,77.70
2019-04-03T11:29:27.249Z,78.20
2019-04-03T11:31:57.747Z,78.10
2019-04-03T11:34:29.194Z,78.00
2019-04-03T11:37:00.876Z,78.20
2019-04-03T11:39:31.678Z,78.60
2019-04-03T11:42:02.032Z,78.50
2019-04-03T11:44:32.610Z,78.60
2019-04-03T11:47:03.529Z,79.50
2019-04-03T11:49:34.310Z,79.60
2019-04-03T11:52:04.646Z,80.60
2019-04-03T11:54:36.996Z,80.70
2019-04-03T11:57:07.977Z,80.90
2019-04-03T11:59:38.415Z,80.60
2019-04-03T12:02:08.789Z,81.70
2019-04-03T12:04:39.252Z,82.40
2019-04-03T12:07:09.687Z,82.50
2019-04-03T12:09:40.104Z,81.70
2019-04-03T12:12:10.858Z,82.00
2019-04-03T12:14:41.659Z,81.50
2019-04-03T12:17:12.374Z,81.30
2019-04-03T12:19:45.436Z,81.20
2019-04-03T12:22:14.842Z,81.90
2019-04-03T12:24:45.251Z,81.10
2019-04-03T12:27:15.595Z,81.00
2019-04-03T12:29:45.987Z,81.40
2019-04-03T12:32:16.349Z,81.50
2019-04-03T12:34:46.744Z,82.80
2019-04-03T12:37:18.659Z,81.70
2019-04-03T12:39:49.410Z,81.10
2019-04-03T12:42:20.157Z,80.70
2019-04-03T12:44:54.023Z,80.10
2019-04-03T12:47:22.607Z,79.40
2019-04-03T12:49:53.998Z,79.10
2019-04-03T12:52:25.280Z,78.60
2019-04-03T12:54:55.759Z,78.40
2019-04-03T12:57:26.123Z,78.60
2019-04-03T12:59:56.715Z,78.30
2019-04-03T13:02:27.076Z,79.30
2019-04-03T13:05:00.269Z,78.90
2019-04-03T13:07:29.498Z,78.70
2019-04-03T13:10:00.134Z,78.50
2019-04-03T13:12:30.571Z,78.40
2019-04-03T13:15:02.092Z,78.90
2019-04-03T13:17:33.282Z,78.70
2019-04-03T13:20:05.818Z,79.50
2019-04-03T13:22:36.548Z,79.80
2019-04-03T13:25:07.952Z,79.30
2019-04-03T13:27:38.308Z,80.00
2019-04-03T13:30:12.343Z,80.30
2019-04-03T13:32:43.019Z,79.90
2019-04-03T13:35:15.494Z,80.50
2019-04-03T13:37:45.794Z,80.00
2019-04-03T13:40:16.665Z,80.50
2019-04-03T13:42:49.252Z,79.90
2019-04-03T13:45:19.387Z,79.40
2019-04-03T13:47:51.006Z,79.50
2019-04-03T13:50:22.941Z,79.80
2019-04-03T13:52:53.468Z,78.90
2019-04-03T13:55:23.845Z,80.20
2019-04-03T13:57:54.716Z,81.10
2019-04-03T14:00:25.492Z,81.10
2019-04-03T14:02:57.674Z,81.20
2019-04-03T14:05:31.855Z,81.80
2019-04-03T14:08:00.550Z,84.20
2019-04-03T14:10:30.891Z,84.70
2019-04-03T14:13:01.271Z,84.00
2019-04-03T14:15:31.645Z,84.90
2019-04-03T14:18:02.296Z,84.50
2019-04-03T14:20:32.731Z,85.20
2019-04-03T14:23:04.100Z,85.10
2019-04-03T14:25:37.983Z,84.60
2019-04-03T14:28:08.230Z,84.50
2019-04-03T14:30:38.719Z,85.10
2019-04-03T14:33:09.076Z,84.50
2019-04-03T14:35:48.957Z,84.60
2019-04-03T14:38:12.357Z,85.20
2019-04-03T14:40:43.528Z,84.80
2019-04-03T14:43:14.803Z,84.50
2019-04-03T14:45:46.095Z,84.20
2019-04-03T14:48:17.283Z,85.00
2019-04-03T14:50:47.792Z,84.50
2019-04-03T14:53:20.213Z,84.90
2019-04-03T14:55:50.582Z,85.70
2019-04-03T14:58:20.987Z,86.00
2019-04-03T15:00:51.328Z,86.20
2019-04-03T15:03:21.684Z,86.50
2019-04-03T15:05:52.407Z,87.00
2019-04-03T15:08:23.713Z,87.60
2019-04-03T15:10:55.698Z,87.70
2019-04-03T15:13:26.632Z,87.70
2019-04-03T15:15:58.891Z,87.70
2019-04-03T15:18:29.113Z,88.20
2019-04-03T15:20:59.819Z,88.20
2019-04-03T15:23:30.321Z,88.80
2019-04-03T15:26:01.043Z,87.60
2019-04-03T15:28:32.346Z,88.00
2019-04-03T15:31:03.083Z,88.30
2019-04-03T15:33:33.549Z,87.40
2019-04-03T15:36:04.781Z,87.60
2019-04-03T15:38:35.235Z,87.20
2019-04-03T15:41:05.800Z,87.60
2019-04-03T15:43:36.197Z,87.10
2019-04-03T15:46:06.607Z,87.00
2019-04-03T15:48:39.679Z,87.30
2019-04-03T15:51:10.029Z,87.50
2019-04-03T15:53:40.471Z,87.00
2019-04-03T15:56:12.970Z,86.70
2019-04-03T15:58:43.334Z,86.70
2019-04-03T16:01:14.941Z,87.00
2019-04-03T16:03:48.804Z,86.80
2019-04-03T16:06:20.149Z,87.20
2019-04-03T16:08:50.512Z,87.30
2019-04-03T16:11:20.900Z,87.60
2019-04-03T16:13:51.307Z,87.70
2019-04-03T16:16:21.689Z,87.80
2019-04-03T16:18:51.990Z,87.20
2019-04-03T16:21:23.771Z,87.30
2019-04-03T16:23:54.356Z,87.50
2019-04-03T16:26:25.000Z,88.20
2019-04-03T16:28:56.920Z,88.50
2019-04-03T16:31:28.420Z,88.90
2019-04-03T16:33:58.900Z,89.00
2019-04-03T16:36:29.273Z,90.20
2019-04-03T16:39:00.647Z,90.00
2019-04-03T16:41:33.710Z,90.20
2019-04-03T16:44:04.088Z,90.00
2019-04-03T16:46:34.492Z,90.20
2019-04-03T16:49:07.499Z,90.20
2019-04-03T16:51:38.062Z,90.70
2019-04-03T16:54:11.855Z,91.10
2019-04-03T16:56:40.556Z,91.10
2019-04-03T16:59:10.921Z,91.10
2019-04-03T17:01:44.377Z,91.00
2019-04-03T17:04:23.850Z,90.90
2019-04-03T17:06:47.598Z,91.00
2019-04-03T17:09:18.862Z,91.10
2019-04-03T17:11:49.707Z,91.20
2019-04-03T17:14:23.122Z,91.10
2019-04-03T17:16:52.777Z,91.10
2019-04-03T17:19:23.540Z,91.50
2019-04-03T17:21:55.003Z,91.00
2019-04-03T17:24:25.869Z,91.10
2019-04-03T17:26:58.968Z,91.40
2019-04-03T17:29:28.241Z,91.10
2019-04-03T17:31:58.901Z,91.10
2019-04-03T17:34:29.271Z,91.10
2019-04-03T17:36:59.714Z,90.90
2019-04-03T17:39:30.169Z,91.10
2019-04-03T17:42:00.560Z,91.30
2019-04-03T17:44:30.976Z,91.40
2019-04-03T17:47:01.448Z,91.20
2019-04-03T17:49:31.814Z,91.00
2019-04-03T17:52:04.680Z,90.90
2019-04-03T17:54:34.219Z,90.80
2019-04-03T17:57:04.702Z,90.70
2019-04-03T17:59:35.149Z,90.40
2019-04-03T18:02:05.495Z,90.30
2019-04-03T18:04:35.878Z,90.20
2019-04-03T18:07:06.303Z,90.20
2019-04-03T18:09:37.032Z,90.20
2019-04-03T18:12:08.346Z,90.10
2019-04-03T18:14:41.542Z,90.00
2019-04-03T18:17:11.914Z,89.90
2019-04-03T18:19:42.419Z,89.90
2019-04-03T18:22:12.888Z,89.40
2019-04-03T18:24:43.198Z,90.00
2019-04-03T18:27:13.593Z,89.90
2019-04-03T18:29:44.895Z,90.00
2019-04-03T18:32:15.529Z,90.10
2019-04-03T18:34:49.473Z,90.10
2019-04-03T18:37:18.443Z,90.20
2019-04-03T18:39:51.451Z,90.30
2019-04-03T18:42:22.129Z,90.30
2019-04-03T18:44:55.944Z,90.30
2019-04-03T18:47:26.755Z,90.50
2019-04-03T18:49:57.156Z,90.40
2019-04-03T18:52:27.522Z,90.30
2019-04-03T18:54:57.897Z,90.30
2019-04-03T18:57:29.222Z,90.20
2019-04-03T19:00:00.715Z,90.20
2019-04-03T19:02:35.238Z,90.30
2019-04-03T19:05:13.783Z,90.30
2019-04-03T19:07:45.988Z,90.20
2019-04-03T19:10:17.969Z,90.10
2019-04-03T19:12:47.155Z,90.20
2019-04-03T19:15:18.577Z,90.10
2019-04-03T19:17:59.567Z,90.30
2019-04-03T19:20:21.026Z,90.10
2019-04-03T19:23:01.884Z,90.40
2019-04-03T19:25:24.214Z,90.50
2019-04-03T19:27:54.689Z,91.00
2019-04-03T19:30:28.623Z,90.60
2019-04-03T19:32:58.902Z,90.80
2019-04-03T19:35:30.120Z,90.60
2019-04-03T19:38:05.015Z,90.90
2019-04-03T19:40:37.233Z,91.20
2019-04-03T19:43:07.620Z,91.40
2019-04-03T19:45:38.033Z,91.30
2019-04-03T19:48:08.513Z,91.20
2019-04-03T19:50:39.517Z,91.10
2019-04-03T19:53:12.831Z,91.00
2019-04-03T19:55:43.059Z,90.90
2019-04-03T19:58:14.299Z,90.90
2019-04-03T20:00:45.199Z,90.90
2019-04-03T20:03:15.724Z,91.00
2019-04-03T20:05:46.051Z,90.90
2019-04-03T20:08:22.914Z,90.90
2019-04-03T20:10:53.943Z,90.80
2019-04-03T20:13:24.735Z,90.90
2019-04-03T20:15:55.103Z,90.80
2019-04-03T20:18:26.051Z,90.80
2019-04-03T20:20:57.121Z,90.70
2019-04-03T20:23:30.177Z,90.50
2019-04-03T20:26:04.478Z,90.60
2019-04-03T20:28:34.570Z,90.60
2019-04-03T20:31:05.671Z,90.50
2019-04-03T20:33:37.057Z,90.50
2019-04-03T20:36:07.409Z,90.60
2019-04-03T20:38:37.931Z,90.60
2019-04-03T20:41:08.248Z,90.40
2019-04-03T20:43:40.916Z,90.90
2019-04-03T20:46:11.361Z,90.60
2019-04-03T20:48:42.294Z,90.40
2019-04-03T20:51:12.699Z,90.30
2019-04-03T20:53:43.228Z,90.30
2019-04-03T20:56:14.611Z,90.20
2019-04-03T20:58:55.185Z,90.30
2019-04-03T21:01:17.537Z,90.30
2019-04-03T21:03:47.927Z,90.30
2019-04-03T21:06:20.550Z,90.20
2019-04-03T21:08:51.174Z,90.20
2019-04-03T21:11:22.566Z,90.20
2019-04-03T21:13:52.913Z,90.30
2019-04-03T21:16:32.807Z,90.20
2019-04-03T21:18:55.222Z,90.20
2019-04-03T21:21:27.925Z,90.50
2019-04-03T21:23:58.279Z,90.50
2019-04-03T21:26:29.553Z,90.30
2019-04-03T21:28:59.887Z,90.30
2019-04-03T21:31:30.260Z,90.40
2019-04-03T21:34:01.949Z,90.50
2019-04-03T21:36:32.724Z,90.50
2019-04-03T21:39:03.178Z,90.40
2019-04-03T21:41:34.146Z,90.20
2019-04-03T21:44:04.641Z,90.40
2019-04-03T21:46:35.031Z,90.50
2019-04-03T21:49:05.364Z,90.40
2019-04-03T21:51:35.833Z,90.60
2019-04-03T21:54:06.242Z,90.60
2019-04-03T21:56:36.598Z,90.60
2019-04-03T21:59:06.941Z,90.70
2019-04-03T22:01:37.319Z,90.70
2019-04-03T22:04:07.650Z,90.80
2019-04-03T22:06:38.018Z,90.70
2019-04-03T22:09:12.161Z,91.00
2019-04-03T22:11:43.305Z,91.00
2019-04-03T22:14:13.662Z,91.10
2019-04-03T22:16:44.044Z,90.80
2019-04-03T22:19:15.692Z,90.80
2019-04-03T22:21:46.047Z,90.80
2019-04-03T22:24:16.402Z,90.90
2019-04-03T22:26:47.741Z,90.90
2019-04-03T22:29:20.446Z,91.20
2019-04-03T22:31:50.072Z,91.20
2019-04-03T22:34:20.767Z,91.10
2019-04-03T22:36:53.070Z,91.00
2019-04-03T22:39:25.220Z,91.10
2019-04-03T22:41:57.523Z,91.00
2019-04-03T22:44:30.056Z,91.00
2019-04-03T22:47:00.590Z,91.30
2019-04-03T22:49:33.736Z,91.30
2019-04-03T22:52:02.974Z,91.50
2019-04-03T22:54:33.375Z,91.20
2019-04-03T22:57:03.755Z,91.30
2019-04-03T22:59:34.098Z,91.20
2019-04-03T23:02:04.551Z,91.40
2019-04-03T23:04:34.940Z,91.50
2019-04-03T23:07:05.303Z,91.30
2019-04-03T23:09:35.629Z,91.40
2019-04-03T23:12:06.008Z,91.30
2019-04-03T23:14:38.213Z,91.30
2019-04-03T23:17:08.362Z,91.30
2019-04-03T23:19:38.684Z,91.40
2019-04-03T23:22:09.095Z,91.40
2019-04-03T23:24:39.501Z,91.20
2019-04-03T23:27:09.882Z,91.10
2019-04-03T23:29:40.223Z,91.20
2019-04-03T23:32:10.587Z,91.10
2019-04-03T23:34:40.924Z,91.00
2019-04-03T23:37:11.881Z,91.10
2019-04-03T23:39:42.220Z,91.10
2019-04-03T23:42:13.283Z,91.20
2019-04-03T23:44:43.627Z,91.10
2019-04-03T23:47:16.365Z,90.90
2019-04-03T23:49:45.986Z,90.80
2019-04-03T23:52:16.335Z,90.80
2019-04-03T23:54:46.750Z,90.90
2019-04-03T23:57:17.132Z,91.00
2019-04-03T23:59:47.464Z,91.00
